Time;durP1;ratioP1;P1;durP2;ratioP2;P2;SDS_P1;SDS_P2;PMS_P1;PMS_P2;Temp;Humidity;BMP_temperature;BMP_pressure;BME280_temperature;BME280_humidity;BME280_pressure;Samples;Min_cycle;Max_cycle;Signal;HPM_P1;HPM_P2
2022/11/05 09:37:26;;;;;;;11.47;8.23;;;;;;;10.87;100.00;99066.75;5109514;28;20568;-77
2022/11/05 09:39:54;;;;;;;10.73;8.43;;;;;;;11.46;100.00;99076.31;5108904;28;40305;-77
2022/11/05 09:42:26;;;;;;;11.17;8.07;;;;;;;12.11;98.63;99073.94;5090796;28;42047;-77
2022/11/05 09:44:58;;;;;;;11.40;8.17;;;;;;;12.65;94.08;99078.31;5105742;28;43582;-78
2022/11/05 09:47:30;;;;;;;8.53;7.13;;;;;;;13.08;90.35;99085.09;5124257;27;42698;-78
2022/11/05 09:50:00;;;;;;;10.60;7.10;;;;;;;13.43;87.56;99081.81;5124573;27;38912;-77
2022/11/05 09:52:32;;;;;;;8.63;7.10;;;;;;;13.71;85.54;99092.19;5108131;28;40753;-77
2022/11/05 09:55:02;;;;;;;8.40;6.20;;;;;;;13.89;84.34;99090.88;5138850;27;43192;-77
2022/11/05 09:57:38;;;;;;;8.03;6.37;;;;;;;14.02;82.97;99099.66;5108946;28;42176;-77
2022/11/05 10:00:08;;;;;;;7.63;6.77;;;;;;;13.93;80.79;99081.72;5104524;28;39892;-77
2022/11/05 10:02:43;;;;;;;7.00;5.90;;;;;;;14.15;80.47;99096.09;5104339;28;41752;-77
2022/11/05 10:05:13;;;;;;;7.77;6.20;;;;;;;14.22;80.22;99097.34;5107412;28;42888;-77
2022/11/05 10:07:47;;;;;;;8.83;6.87;;;;;;;14.20;78.83;99078.84;5124907;27;41715;-78
2022/11/05 10:10:35;;;;;;;8.37;5.87;;;;;;;14.31;78.37;99092.22;5107396;28;38940;-77
2022/11/05 10:13:07;;;;;;;7.10;6.40;;;;;;;14.27;77.98;99084.56;5124433;27;40541;-77
2022/11/05 10:15:40;;;;;;;6.80;6.23;;;;;;;14.43;77.97;99100.28;5104920;28;42557;-77
2022/11/05 10:18:15;;;;;;;7.23;6.33;;;;;;;14.57;77.58;99102.78;5138575;27;41878;-77
2022/11/05 10:20:44;;;;;;;8.70;7.53;;;;;;;14.77;76.75;99107.44;5105237;28;40574;-78
2022/11/05 10:23:15;;;;;;;7.70;6.60;;;;;;;15.15;75.76;99109.00;5108470;28;42750;-77
2022/11/05 10:25:46;;;;;;;7.70;6.37;;;;;;;16.74;72.54;99122.84;5107051;28;43095;-77
2022/11/05 10:28:18;;;;;;;7.07;5.83;;;;;;;18.41;67.08;99136.00;5124427;27;42543;-78
2022/11/05 10:30:48;;;;;;;8.57;6.07;;;;;;;19.56;62.68;99141.38;5104949;28;40700;-78
2022/11/05 10:33:24;;;;;;;6.33;5.50;;;;;;;20.59;59.38;99145.72;5108170;28;42489;-78
2022/11/05 10:35:55;;;;;;;6.23;5.63;;;;;;;23.51;53.42;99174.22;5104767;28;43050;-78
2022/11/05 10:38:24;;;;;;;7.17;5.57;;;;;;;24.72;47.93;99201.97;5104995;28;42679;-77
2022/11/05 10:40:57;;;;;;;5.10;4.60;;;;;;;23.67;48.79;99192.28;5106477;28;40200;-78
2022/11/05 10:43:30;;;;;;;5.03;4.57;;;;;;;22.95;49.83;99183.97;5103921;28;41496;-77
2022/11/05 10:46:12;;;;;;;6.53;4.63;;;;;;;22.61;48.92;99196.69;5123615;27;41638;-77
2022/11/05 10:48:55;;;;;;;6.73;4.77;;;;;;;22.18;49.61;99190.44;5110403;27;41109;-78
2022/11/05 10:51:23;;;;;;;6.43;5.07;;;;;;;21.53;50.06;99184.63;5093486;28;39961;-77
2022/11/05 10:53:55;;;;;;;5.80;4.50;;;;;;;20.87;51.41;99155.44;5109957;28;41819;-77
2022/11/05 10:56:34;;;;;;;4.73;4.33;;;;;;;20.61;52.37;99171.50;5092956;28;42009;-78
2022/11/05 10:59:03;;;;;;;5.83;5.07;;;;;;;20.37;51.92;99179.28;5124229;27;42444;-78
2022/11/05 11:01:31;;;;;;;6.57;5.03;;;;;;;20.57;52.40;99170.09;5094028;28;41084;-78
2022/11/05 11:04:12;;;;;;;9.23;5.40;;;;;;;22.24;49.68;99188.97;5092867;28;40656;-78
2022/11/05 11:06:48;;;;;;;8.57;5.70;;;;;;;23.94;46.88;99198.16;5092501;28;41439;-78
2022/11/05 11:09:26;;;;;;;6.37;5.20;;;;;;;23.52;45.73;99202.94;5093298;28;40969;-77
2022/11/05 11:12:00;;;;;;;6.17;4.97;;;;;;;22.88;47.03;99199.16;5093510;28;40873;-78
2022/11/05 11:14:28;;;;;;;6.47;4.20;;;;;;;22.84;46.50;99198.66;5109674;28;41130;-77
2022/11/05 11:17:16;;;;;;;5.30;4.07;;;;;;;22.69;46.37;99194.03;5092345;28;42634;-77
2022/11/05 11:19:43;;;;;;;6.40;3.93;;;;;;;21.94;47.32;99199.22;5110771;28;41872;-78
2022/11/05 11:22:16;;;;;;;4.83;3.67;;;;;;;21.12;48.35;99149.28;5094394;28;39769;-78
2022/11/05 11:24:48;;;;;;;6.13;3.80;;;;;;;20.76;49.17;99182.59;5076372;28;42427;-78
2022/11/05 11:27:19;;;;;;;6.00;3.80;;;;;;;20.20;49.77;99167.44;5093315;28;42563;-78
2022/11/05 11:29:51;;;;;;;4.83;2.90;;;;;;;19.47;50.25;99120.72;5092677;28;41070;-77
2022/11/05 11:32:21;;;;;;;3.97;2.90;;;;;;;19.16;51.20;99108.50;5109835;28;38875;-77
2022/11/05 11:34:53;;;;;;;4.23;3.60;;;;;;;19.21;51.92;99173.34;5076018;28;40919;-78
2022/11/05 11:37:25;;;;;;;5.50;3.50;;;;;;;18.99;52.44;99159.22;5109216;28;42789;-77
2022/11/05 11:39:57;;;;;;;6.27;4.37;;;;;;;18.87;52.27;99171.09;5109347;28;42637;-77
2022/11/05 11:42:31;;;;;;;4.10;3.70;;;;;;;18.63;53.26;99146.50;5089716;28;39970;-76
2022/11/05 11:45:04;;;;;;;4.00;3.33;;;;;;;18.48;53.13;99154.06;5075117;28;42227;-77
2022/11/05 11:47:33;;;;;;;3.60;3.30;;;;;;;18.59;53.42;99169.22;5075346;28;41955;-77
2022/11/05 11:50:02;;;;;;;4.03;3.47;;;;;;;18.72;53.75;99142.13;5091827;28;41082;-77
2022/11/05 11:52:32;;;;;;;4.30;3.70;;;;;;;19.17;53.39;99164.72;5092382;28;40060;-77
2022/11/05 11:55:28;;;;;;;5.87;3.53;;;;;;;19.33;52.44;99166.84;5074829;28;41002;-77
2022/11/05 11:58:06;;;;;;;4.10;3.07;;;;;;;19.25;52.25;99174.75;5078440;28;42685;-76
2022/11/05 12:00:39;;;;;;;6.43;3.97;;;;;;;19.09;51.92;99179.84;5108107;28;42407;-80
2022/11/05 12:03:22;;;;;;;6.63;4.10;;;;;;;18.95;51.86;99179.28;5108747;28;40036;-77
2022/11/05 12:05:57;;;;;;;5.23;3.80;;;;;;;18.80;52.05;99175.31;5091037;28;41716;-77
2022/11/05 12:08:48;;;;;;;4.03;3.63;;;;;;;18.53;53.09;99172.44;5109377;28;41805;-77
2022/11/05 12:11:23;;;;;;;5.80;3.70;;;;;;;18.36;53.25;99175.78;5091466;28;41309;-77
2022/11/05 12:13:58;;;;;;;4.43;2.90;;;;;;;18.26;53.55;99171.25;5091814;28;38918;-78
2022/11/05 12:16:40;;;;;;;3.87;3.30;;;;;;;18.26;53.64;99165.88;5108367;28;40668;-78
2022/11/05 12:19:20;;;;;;;5.67;3.43;;;;;;;18.08;53.19;99170.19;5089818;28;43000;-77
2022/11/05 12:21:59;;;;;;;4.27;3.10;;;;;;;17.77;54.45;99168.50;5091822;28;41134;-77
2022/11/05 12:24:57;;;;;;;4.27;3.37;;;;;;;17.49;55.46;99159.31;5089965;28;39942;-78
2022/11/05 12:27:48;;;;;;;6.90;3.60;;;;;;;17.08;55.39;99130.69;5107771;28;41746;-77
2022/11/05 12:30:18;;;;;;;4.37;3.80;;;;;;;16.84;56.32;99155.88;5071562;28;44042;-82
2022/11/05 12:33:21;;;;;;;5.73;3.93;;;;;;;16.56;57.09;99158.28;5074009;28;42449;-79
2022/11/05 12:36:04;;;;;;;5.30;3.57;;;;;;;16.25;58.56;99155.41;5086828;28;39897;-77
2022/11/05 12:38:50;;;;;;;4.73;3.03;;;;;;;16.00;59.96;99139.66;5086677;28;43091;-76
2022/11/05 12:41:24;;;;;;;2.77;2.50;;;;;;;15.98;60.06;99131.75;5086812;28;44328;-78
2022/11/05 12:44:08;;;;;;;3.50;2.80;;;;;;;16.13;61.41;99130.53;5073690;28;42304;-77
2022/11/05 12:46:43;;;;;;;3.30;2.30;;;;;;;16.34;61.60;99119.06;5072777;28;39036;-77
2022/11/05 12:49:30;;;;;;;3.13;2.83;;;;;;;16.51;62.12;99130.06;5087198;28;42659;-73
2022/11/05 12:52:15;;;;;;;3.70;2.33;;;;;;;16.82;61.63;99138.25;5087439;28;43635;-76
2022/11/05 12:54:59;;;;;;;2.87;2.33;;;;;;;17.75;59.19;99154.41;5083290;28;41936;-76
2022/11/05 12:57:29;;;;;;;3.57;2.20;;;;;;;19.20;55.54;99139.44;5085267;28;40113;-78
2022/11/05 13:00:18;;;;;;;3.23;1.90;;;;;;;20.13;52.77;99171.72;5089049;28;43167;-77
2022/11/05 13:02:52;;;;;;;2.10;1.43;;;;;;;19.94;51.66;99182.53;5069569;28;43011;-80
2022/11/05 13:05:29;;;;;;;3.30;2.30;;;;;;;19.47;50.48;99195.09;5088052;28;42323;-77
2022/11/05 13:08:01;;;;;;;2.83;2.20;;;;;;;19.05;51.60;99179.28;5087419;28;39869;-79
2022/11/05 13:10:34;;;;;;;3.37;2.43;;;;;;;18.75;52.52;99177.59;5072006;28;40756;-78
2022/11/05 13:13:14;;;;;;;3.27;2.37;;;;;;;18.49;53.21;99189.78;5090142;28;41689;-76
2022/11/05 13:15:50;;;;;;;3.80;2.57;;;;;;;18.27;52.88;99181.00;5087881;28;41420;-78
2022/11/05 13:18:24;;;;;;;4.13;2.50;;;;;;;18.02;53.78;99173.41;5086048;28;39153;-80
2022/11/05 13:20:55;;;;;;;2.77;2.40;;;;;;;17.82;54.48;99176.97;5088433;28;42037;-75
2022/11/05 13:23:30;;;;;;;2.67;2.47;;;;;;;17.54;54.47;99159.75;5087743;28;41644;-78
2022/11/05 13:26:03;;;;;;;3.07;2.70;;;;;;;17.53;55.28;99172.31;5071487;28;42420;-79
2022/11/05 13:28:36;;;;;;;3.50;2.60;;;;;;;17.44;55.53;99172.22;5071336;28;38467;-79
2022/11/05 13:31:11;;;;;;;3.87;2.60;;;;;;;17.19;54.16;99168.09;5073192;28;41866;-83
2022/11/05 13:33:42;;;;;;;3.03;2.37;;;;;;;17.06;55.12;99167.47;5087903;28;41541;-78
2022/11/05 13:39:08;;;;;;;3.80;2.77;;;;;;;16.58;56.35;99167.00;5072979;28;39407;-85
2022/11/05 13:41:57;;;;;;;3.57;3.20;;;;;;;16.11;57.06;99115.59;5088538;28;41495;-88
2022/11/05 13:44:57;;;;;;;3.40;2.50;;;;;;;16.31;57.23;99164.78;5069007;28;41597;-78
2022/11/05 13:47:39;;;;;;;3.50;3.20;;;;;;;16.21;57.05;99159.31;5042816;28;41977;-78
2022/11/05 13:50:32;;;;;;;4.07;3.07;;;;;;;16.27;57.58;99165.97;5089161;28;39116;-76
2022/11/05 13:53:23;;;;;;;3.57;2.63;;;;;;;16.26;57.80;99169.63;5068029;28;41113;-78
2022/11/05 13:56:06;;;;;;;3.23;2.93;;;;;;;16.27;57.49;99174.00;5071254;28;42952;-75
2022/11/05 13:58:58;;;;;;;5.83;2.97;;;;;;;16.19;58.07;99179.13;5070243;28;41135;-77
2022/11/05 14:01:48;;;;;;;4.50;3.07;;;;;;;16.14;58.14;99179.47;5087702;28;38314;-81
2022/11/05 14:04:26;;;;;;;5.43;3.67;;;;;;;15.94;58.43;99157.03;5087665;28;41882;-79
2022/11/05 14:07:04;;;;;;;5.00;3.17;;;;;;;16.00;58.78;99183.25;5093623;27;42928;-80
2022/11/05 14:09:36;;;;;;;3.03;2.70;;;;;;;15.93;59.30;99182.06;5085578;28;42247;-76
2022/11/05 14:12:07;;;;;;;4.93;3.87;;;;;;;15.84;58.92;99182.75;5087006;28;40138;-77
2022/11/05 14:14:43;;;;;;;4.83;3.80;;;;;;;15.39;58.74;99131.97;5086064;28;41653;-83
2022/11/05 14:17:16;;;;;;;4.40;3.40;;;;;;;15.67;58.90;99188.59;5086920;28;43780;-80
2022/11/05 14:20:08;;;;;;;3.77;3.10;;;;;;;15.46;59.06;99173.22;5086220;28;42942;-81
2022/11/05 14:22:39;;;;;;;5.50;4.37;;;;;;;15.48;58.92;99180.25;5087252;28;39861;-80
2022/11/05 14:25:58;;;;;;;4.13;3.60;;;;;;;15.36;59.58;99177.56;5071040;28;42013;-79
2022/11/05 14:28:51;;;;;;;5.43;4.17;;;;;;;15.23;59.69;99179.47;5089471;28;42601;-79
2022/11/05 14:31:27;;;;;;;6.53;4.00;;;;;;;15.00;60.09;99153.72;5069982;28;42116;-78
2022/11/05 14:34:01;;;;;;;5.00;4.43;;;;;;;15.06;60.26;99175.44;5075314;28;39171;-81
2022/11/05 14:36:34;;;;;;;4.23;3.40;;;;;;;14.99;60.20;99173.34;5088957;28;41781;-80
2022/11/05 14:39:23;;;;;;;4.83;3.57;;;;;;;14.91;60.53;99171.25;5088533;28;42809;-79
2022/11/05 14:41:57;;;;;;;4.57;3.20;;;;;;;14.89;60.83;99177.66;5085251;28;43258;-81
2022/11/05 14:44:26;;;;;;;3.97;3.57;;;;;;;14.85;61.41;99170.84;5089890;28;39495;-78
2022/11/05 14:46:57;;;;;;;4.70;3.50;;;;;;;14.79;61.20;99166.00;5091126;28;44394;-78
2022/11/05 14:49:28;;;;;;;3.43;3.13;;;;;;;14.66;61.18;99156.25;5091141;28;41302;-76
2022/11/05 14:52:09;;;;;;;4.90;4.37;;;;;;;14.79;60.39;99176.66;5070934;28;41429;-79
2022/11/05 14:54:43;;;;;;;6.10;4.00;;;;;;;14.81;60.67;99186.25;5090939;28;39039;-77
2022/11/05 14:57:14;;;;;;;4.60;3.77;;;;;;;14.83;60.83;99186.16;5090712;28;41433;-78
2022/11/05 14:59:55;;;;;;;5.17;3.00;;;;;;;14.71;61.21;99162.06;5087343;28;42733;-79
2022/11/05 15:02:26;;;;;;;5.70;4.30;;;;;;;14.77;61.16;99181.25;5085719;28;41930;-76
2022/11/05 15:05:28;;;;;;;3.97;3.03;;;;;;;14.71;61.57;99186.06;5088760;28;39967;-78
2022/11/05 15:08:20;;;;;;;4.73;3.03;;;;;;;14.59;61.65;99188.78;5087905;28;42297;-80
2022/11/05 15:10:49;;;;;;;3.57;3.13;;;;;;;14.45;61.93;99188.97;5085453;28;43070;-78
2022/11/05 15:13:29;;;;;;;3.77;3.30;;;;;;;14.13;62.17;99167.28;5074611;28;41293;-80
2022/11/05 15:15:59;;;;;;;3.57;3.13;;;;;;;14.07;62.80;99191.69;5090229;28;39682;-80
2022/11/05 15:18:32;;;;;;;7.10;3.27;;;;;;;13.85;63.22;99190.53;5075158;28;40829;-79
2022/11/05 15:21:03;;;;;;;5.70;3.80;;;;;;;13.65;63.15;99191.94;5087835;28;42514;-77
2022/11/05 15:23:39;;;;;;;6.13;3.57;;;;;;;13.43;63.72;99190.88;5104447;28;41044;-79
2022/11/05 15:26:12;;;;;;;5.00;3.57;;;;;;;13.22;64.29;99202.06;5088825;28;40694;-79
2022/11/05 15:28:43;;;;;;;6.23;4.10;;;;;;;13.05;64.24;99199.63;5090547;28;41814;-75
2022/11/05 15:31:25;;;;;;;7.20;4.23;;;;;;;12.89;64.69;99202.44;5088568;28;42813;-79
2022/11/05 15:34:15;;;;;;;7.00;4.60;;;;;;;12.73;64.87;99187.63;5089002;28;42904;-81
2022/11/05 15:36:47;;;;;;;7.33;4.70;;;;;;;12.58;65.35;99192.16;5088327;28;39708;-78
2022/11/05 15:39:28;;;;;;;5.57;4.23;;;;;;;12.37;65.52;99175.78;5091736;28;41608;-81
2022/11/05 15:41:56;;;;;;;5.80;4.37;;;;;;;12.32;65.79;99199.16;5090938;28;41825;-81
2022/11/05 15:44:26;;;;;;;6.43;4.67;;;;;;;12.20;66.08;99194.63;5091407;28;42599;-79
2022/11/05 15:47:12;;;;;;;6.83;5.00;;;;;;;12.08;66.80;99190.94;5125593;27;39719;-81
2022/11/05 15:49:41;;;;;;;6.63;4.93;;;;;;;11.95;66.82;99191.81;5073779;28;40787;-84
2022/11/05 15:52:12;;;;;;;6.03;4.70;;;;;;;11.84;66.90;99193.34;5073724;28;41653;-78
2022/11/05 15:54:41;;;;;;;6.40;4.70;;;;;;;11.74;66.83;99197.47;5088942;28;43723;-77
2022/11/05 15:57:22;;;;;;;6.13;4.50;;;;;;;11.62;67.44;99187.59;5089886;28;39022;-78
2022/11/05 15:59:50;;;;;;;5.20;4.70;;;;;;;11.50;67.36;99185.69;5071426;28;40672;-76
2022/11/05 16:02:29;;;;;;;5.87;5.10;;;;;;;11.44;68.04;99200.19;5089911;28;44485;-81
2022/11/05 16:04:58;;;;;;;6.00;4.50;;;;;;;11.37;67.99;99203.31;5090336;28;43072;-82
2022/11/05 16:07:27;;;;;;;5.80;4.40;;;;;;;11.22;68.44;99194.47;5092540;28;40080;-78
2022/11/05 16:10:03;;;;;;;5.30;3.97;;;;;;;11.09;68.25;99188.19;5086900;28;41781;-80
2022/11/05 16:12:33;;;;;;;4.73;4.00;;;;;;;10.92;68.55;99183.88;5073772;28;43008;-81
2022/11/05 16:15:17;;;;;;;6.20;5.20;;;;;;;11.05;68.53;99221.13;5091934;28;43110;-79
2022/11/05 16:17:48;;;;;;;7.27;5.07;;;;;;;10.99;68.85;99225.00;5087971;28;41572;-78
2022/11/05 16:20:22;;;;;;;7.57;5.67;;;;;;;10.93;69.37;99220.03;5087158;28;41916;-78
2022/11/05 16:22:52;;;;;;;7.73;5.10;;;;;;;10.94;69.87;99219.09;5091172;28;44934;-76
2022/11/05 16:25:29;;;;;;;6.97;5.23;;;;;;;10.93;69.93;99219.19;5090271;28;42418;-78
2022/11/05 16:27:58;;;;;;;8.97;6.03;;;;;;;10.91;69.99;99221.91;5089863;28;38366;-80
2022/11/05 16:30:26;;;;;;;7.53;5.50;;;;;;;10.89;70.23;99223.81;5090122;28;41745;-80
2022/11/05 16:32:55;;;;;;;5.53;4.83;;;;;;;10.88;70.51;99232.69;5091190;28;43810;-79
2022/11/05 16:35:24;;;;;;;7.63;6.27;;;;;;;10.89;70.37;99231.75;5087787;28;41816;-79
2022/11/05 16:37:52;;;;;;;7.30;5.67;;;;;;;10.77;71.00;99208.63;5072565;28;40017;-76
2022/11/05 16:40:22;;;;;;;7.20;5.80;;;;;;;10.86;71.01;99224.00;5089418;28;41593;-78
2022/11/05 16:42:52;;;;;;;6.60;5.30;;;;;;;10.85;70.96;99222.28;5089659;28;43469;-80
2022/11/05 16:45:23;;;;;;;9.23;6.93;;;;;;;10.85;71.69;99217.00;5072211;28;41125;-79
2022/11/05 16:47:55;;;;;;;6.97;5.90;;;;;;;10.84;71.37;99235.63;5086608;28;40087;-81
2022/11/05 16:50:26;;;;;;;8.70;6.10;;;;;;;10.81;71.27;99236.66;5088877;28;41445;-82
2022/11/05 16:52:54;;;;;;;22.87;14.93;;;;;;;10.79;71.96;99227.94;5090783;28;44027;-80
2022/11/05 16:55:21;;;;;;;14.67;10.60;;;;;;;10.72;71.75;99231.88;5073139;28;41384;-79
2022/11/05 16:57:54;;;;;;;24.27;14.43;;;;;;;10.74;72.30;99240.59;5090405;28;40333;-79
2022/11/05 17:00:22;;;;;;;29.03;17.07;;;;;;;10.72;72.35;99245.13;5086756;28;42543;-78
2022/11/05 17:02:50;;;;;;;20.83;14.03;;;;;;;10.66;72.69;99233.06;5089892;28;43668;-76
2022/11/05 17:05:22;;;;;;;17.50;11.13;;;;;;;10.63;72.52;99233.25;5087777;28;41455;-78
2022/11/05 17:07:50;;;;;;;12.27;8.30;;;;;;;10.65;72.66;99247.25;5073129;28;40621;-78
2022/11/05 17:10:18;;;;;;;10.30;7.90;;;;;;;10.62;72.66;99254.53;5088928;28;41070;-76
2022/11/05 17:12:46;;;;;;;9.73;7.27;;;;;;;10.63;72.54;99253.59;5072214;28;41763;-75
2022/11/05 17:15:24;;;;;;;12.10;8.43;;;;;;;10.61;73.21;99245.75;5088860;28;42916;-78
2022/11/05 17:17:53;;;;;;;9.63;7.60;;;;;;;10.59;72.70;99241.47;5072260;28;38993;-75
2022/11/05 17:20:31;;;;;;;7.50;6.53;;;;;;;10.59;72.82;99257.34;5071880;28;40540;-76
2022/11/05 17:22:59;;;;;;;8.80;6.97;;;;;;;10.57;72.61;99264.53;5088365;28;42566;-76
2022/11/05 17:25:27;;;;;;;9.97;7.00;;;;;;;10.54;72.76;99270.84;5072862;28;41226;-76
2022/11/05 17:27:57;;;;;;;10.20;6.87;;;;;;;10.53;72.64;99268.28;5090494;28;39055;-77
2022/11/05 17:30:26;;;;;;;8.30;6.00;;;;;;;10.51;72.71;99281.59;5090082;28;40562;-77
2022/11/05 17:32:54;;;;;;;8.77;7.40;;;;;;;10.48;73.09;99281.78;5090095;28;41612;-75
2022/11/05 17:35:23;;;;;;;8.63;7.10;;;;;;;10.47;72.83;99289.81;5073040;28;41984;-77
2022/11/05 17:37:51;;;;;;;10.03;6.37;;;;;;;10.42;72.98;99290.91;5091717;28;39792;-77
2022/11/05 17:40:21;;;;;;;10.37;7.30;;;;;;;10.41;72.86;99285.69;5090411;28;42699;-77
2022/11/05 17:42:49;;;;;;;8.07;6.50;;;;;;;10.38;72.98;99285.88;5089986;28;42690;-76
2022/11/05 17:45:17;;;;;;;9.03;7.27;;;;;;;10.35;73.32;99297.50;5090211;28;43186;-77
2022/11/05 17:47:46;;;;;;;8.10;6.87;;;;;;;10.30;73.46;99299.53;5073504;28;39970;-77
2022/11/05 17:50:15;;;;;;;11.07;7.50;;;;;;;10.25;73.56;99296.28;5090318;28;41878;-76
2022/11/05 17:52:43;;;;;;;10.53;7.70;;;;;;;10.26;73.83;99297.16;5091483;28;42714;-77
2022/11/05 17:55:16;;;;;;;9.03;7.50;;;;;;;10.23;73.86;99300.81;5089845;28;42271;-77
2022/11/05 17:57:45;;;;;;;9.10;7.27;;;;;;;10.21;74.09;99292.09;5089131;28;39833;-77
2022/11/05 18:00:15;;;;;;;9.83;7.57;;;;;;;10.19;74.12;99295.75;5076438;28;40759;-76
2022/11/05 18:02:42;;;;;;;9.97;7.90;;;;;;;10.15;73.97;99297.66;5076428;28;41663;-76
2022/11/05 18:05:14;;;;;;;8.03;7.23;;;;;;;10.12;74.35;99304.94;5093164;28;42648;-77
2022/11/05 18:07:42;;;;;;;9.00;7.27;;;;;;;10.09;74.68;99312.09;5077058;28;38954;-76
2022/11/05 18:10:10;;;;;;;11.70;8.17;;;;;;;10.06;74.72;99314.03;5094615;28;42548;-76
2022/11/05 18:12:38;;;;;;;10.63;8.00;;;;;;;9.94;74.66;99291.72;5094588;28;42702;-75
2022/11/05 18:15:07;;;;;;;13.07;9.40;;;;;;;9.90;74.79;99294.63;5092483;28;42713;-76
2022/11/05 18:17:36;;;;;;;9.90;8.13;;;;;;;10.01;74.95;99318.75;5076360;28;38646;-76
2022/11/05 18:20:07;;;;;;;10.43;7.50;;;;;;;9.97;74.70;99318.03;5092965;28;41470;-75
2022/11/05 18:22:38;;;;;;;9.47;7.47;;;;;;;9.98;75.05;99313.59;5093244;28;41456;-76
2022/11/05 18:25:07;;;;;;;8.50;7.17;;;;;;;9.96;74.96;99315.47;5090138;28;42180;-75
2022/11/05 18:27:35;;;;;;;11.80;8.57;;;;;;;9.95;75.41;99317.25;5093147;28;39896;-76
2022/11/05 18:30:04;;;;;;;10.43;7.73;;;;;;;9.94;74.95;99314.69;5092995;28;41699;-76
2022/11/05 18:32:32;;;;;;;10.90;8.30;;;;;;;9.87;75.35;99310.66;5094000;28;44090;-76
2022/11/05 18:35:00;;;;;;;10.27;7.90;;;;;;;9.90;75.91;99319.28;5073239;28;41270;-76
2022/11/05 18:37:28;;;;;;;10.37;7.57;;;;;;;9.89;75.65;99311.44;5091607;28;41670;-81
2022/11/05 18:39:57;;;;;;;10.13;8.23;;;;;;;9.87;75.70;99310.66;5092160;28;41834;-77
2022/11/05 18:42:24;;;;;;;8.63;7.10;;;;;;;9.85;75.69;99315.19;5091289;28;41646;-79
2022/11/05 18:44:52;;;;;;;8.83;6.90;;;;;;;9.82;75.97;99312.69;5092027;28;42359;-79
2022/11/05 18:47:20;;;;;;;10.97;7.23;;;;;;;9.60;76.40;99278.56;5092943;28;38892;-84
2022/11/05 18:49:47;;;;;;;9.53;6.77;;;;;;;9.73;76.24;99314.03;5090320;28;41903;-76
2022/11/05 18:52:15;;;;;;;9.53;6.90;;;;;;;9.60;76.70;99292.66;5092408;28;43499;-81
2022/11/05 18:54:43;;;;;;;9.00;6.47;;;;;;;9.64;76.90;99306.56;5091176;28;42658;-78
2022/11/05 18:57:11;;;;;;;8.93;7.33;;;;;;;9.58;76.41;99317.44;5074506;28;39310;-82
2022/11/05 18:59:40;;;;;;;6.80;5.97;;;;;;;9.51;76.26;99314.28;5091602;28;42753;-76
2022/11/05 19:02:10;;;;;;;8.37;5.90;;;;;;;9.33;76.52;99304.63;5091961;28;41688;-79
2022/11/05 19:04:38;;;;;;;6.57;5.87;;;;;;;9.02;76.16;99259.53;5090946;28;42203;-77
2022/11/05 19:07:08;;;;;;;9.73;6.67;;;;;;;9.26;76.99;99319.94;5074995;28;38722;-77
2022/11/05 19:09:38;;;;;;;8.07;6.40;;;;;;;9.21;76.91;99323.72;5091125;28;40321;-78
2022/11/05 19:12:07;;;;;;;6.20;5.57;;;;;;;9.10;77.04;99318.97;5091692;28;43534;-85
2022/11/05 19:14:36;;;;;;;8.40;6.30;;;;;;;9.08;77.08;99330.53;5074911;28;42086;-79
2022/11/05 19:17:04;;;;;;;7.43;5.97;;;;;;;9.02;77.32;99319.34;5091932;28;39103;-80
2022/11/05 19:19:31;;;;;;;7.47;6.23;;;;;;;8.98;77.33;99330.16;5072999;28;40700;-81
2022/11/05 19:21:59;;;;;;;6.20;5.60;;;;;;;8.94;77.29;99324.16;5091420;28;43768;-81
2022/11/05 19:24:27;;;;;;;10.53;6.63;;;;;;;8.90;77.58;99327.84;5075061;28;42108;-81
2022/11/05 19:26:54;;;;;;;7.70;5.83;;;;;;;8.85;78.71;99319.31;5092759;28;41255;-77
2022/11/05 19:29:22;;;;;;;7.33;6.27;;;;;;;8.83;78.24;99317.66;5093258;28;41872;-78
2022/11/05 19:31:51;;;;;;;8.17;6.27;;;;;;;8.81;78.65;99328.31;5075887;28;42048;-78
2022/11/05 19:34:19;;;;;;;11.77;8.27;;;;;;;8.78;78.78;99317.88;5093179;28;42325;-78
